createdAt,value
2023-03-10T00:01:29.868Z,96741.06
2023-03-10T00:03:59.329Z,96735.56
2023-03-10T00:06:31.050Z,96732.41
2023-03-10T00:08:57.887Z,96728.47
2023-03-10T00:11:24.870Z,96730.63
2023-03-10T00:13:52.244Z,96727.81
2023-03-10T00:16:21.536Z,96732.47
2023-03-10T00:18:49.371Z,96730.09
2023-03-10T00:21:20.656Z,96726.16
2023-03-10T00:23:47.760Z,96721.06
2023-03-10T00:26:17.653Z,96708.34
2023-03-10T00:28:59.612Z,96712.50
2023-03-10T00:31:28.437Z,96709.28
2023-03-10T00:33:56.991Z,96714.13
2023-03-10T00:36:27.631Z,96708.63
2023-03-10T00:38:56.210Z,96707.75
2023-03-10T00:41:27.047Z,96709.22
2023-03-10T00:43:53.998Z,96701.00
2023-03-10T00:46:21.534Z,96701.00
2023-03-10T00:48:48.497Z,96702.69
2023-03-10T00:51:16.324Z,96694.59
2023-03-10T00:53:43.776Z,96682.31
2023-03-10T00:56:15.209Z,96678.00
2023-03-10T00:58:43.904Z,96672.03
2023-03-10T01:01:16.235Z,96665.91
2023-03-10T01:03:46.637Z,96663.91
2023-03-10T01:06:13.954Z,96665.84
2023-03-10T01:08:41.143Z,96658.41
2023-03-10T01:11:08.208Z,96656.03
2023-03-10T01:13:35.110Z,96651.88
2023-03-10T01:16:02.008Z,96645.84
2023-03-10T01:18:28.901Z,96656.19
2023-03-10T01:20:55.710Z,96642.06
2023-03-10T01:23:25.509Z,96653.53
2023-03-10T01:25:52.599Z,96643.59
2023-03-10T01:28:20.928Z,96645.03
2023-03-10T01:30:48.791Z,96630.19
2023-03-10T01:33:17.690Z,96617.09
2023-03-10T01:35:45.017Z,96621.75
2023-03-10T01:38:12.400Z,96610.56
2023-03-10T01:40:40.843Z,96618.41
2023-03-10T01:43:19.865Z,96619.22
2023-03-10T01:45:46.609Z,96620.44
2023-03-10T01:48:16.542Z,96613.88
2023-03-10T01:50:48.943Z,96607.69
2023-03-10T01:53:19.837Z,96602.63
2023-03-10T01:55:54.648Z,96604.56
2023-03-10T01:58:26.372Z,96596.44
2023-03-10T02:00:54.476Z,96603.31
2023-03-10T02:03:37.129Z,96602.97
2023-03-10T02:06:14.259Z,96596.44
2023-03-10T02:08:51.472Z,96586.75
2023-03-10T02:11:19.994Z,96584.81
2023-03-10T02:13:47.567Z,96586.38
2023-03-10T02:16:17.558Z,96581.31
2023-03-10T02:18:48.410Z,96576.44
2023-03-10T02:21:27.008Z,96560.28
2023-03-10T02:24:41.352Z,96547.53
2023-03-10T02:27:26.773Z,96539.41
2023-03-10T02:30:06.895Z,96537.13
2023-03-10T02:32:39.765Z,96540.28
2023-03-10T02:35:07.168Z,96553.47
2023-03-10T02:37:35.909Z,96543.53
2023-03-10T02:40:07.523Z,96541.25
2023-03-10T02:42:36.808Z,96544.38
2023-03-10T02:45:04.712Z,96541.31
2023-03-10T02:47:31.737Z,96538.28
2023-03-10T02:49:58.515Z,96542.91
2023-03-10T02:52:47.172Z,96534.78
2023-03-10T02:55:18.304Z,96539.06
2023-03-10T02:57:45.431Z,96540.28
2023-03-10T03:00:13.301Z,96527.53
2023-03-10T03:02:40.516Z,96530.25
2023-03-10T03:05:08.117Z,96532.59
2023-03-10T03:07:35.535Z,96531.88
2023-03-10T03:10:02.591Z,96528.41
2023-03-10T03:12:29.399Z,96523.69
2023-03-10T03:14:56.131Z,96509.34
2023-03-10T03:17:23.561Z,96503.16
2023-03-10T03:19:50.534Z,96497.66
2023-03-10T03:22:17.324Z,96494.94
2023-03-10T03:24:44.715Z,96497.31
2023-03-10T03:27:11.519Z,96498.88
2023-03-10T03:29:38.576Z,96506.66
2023-03-10T03:32:06.233Z,96500.53
2023-03-10T03:34:33.107Z,96498.25
2023-03-10T03:36:59.864Z,96492.84
2023-03-10T03:39:26.730Z,96494.78
2023-03-10T03:41:57.115Z,96487.41
2023-03-10T03:44:24.092Z,96481.94
2023-03-10T03:46:50.940Z,96471.81
2023-03-10T03:49:17.729Z,96473.28
2023-03-10T03:51:44.460Z,96484.81
2023-03-10T03:54:11.308Z,96489.19
2023-03-10T03:56:38.091Z,96487.25
2023-03-10T03:59:05.780Z,96485.41
2023-03-10T04:01:32.976Z,96483.50
2023-03-10T04:04:00.174Z,96487.41
2023-03-10T04:06:27.607Z,96491.69
2023-03-10T04:08:54.339Z,96480.44
2023-03-10T04:11:21.554Z,96489.69
2023-03-10T04:13:48.326Z,96493.53
2023-03-10T04:16:15.147Z,96495.03
2023-03-10T04:18:42.108Z,96496.94
2023-03-10T04:21:08.919Z,96488.41
2023-03-10T04:23:36.159Z,96487.88
2023-03-10T04:26:08.507Z,96487.69
2023-03-10T04:28:39.036Z,96494.63
2023-03-10T04:31:16.465Z,96488.25
2023-03-10T04:33:43.733Z,96495.91
2023-03-10T04:36:11.075Z,96502.13
2023-03-10T04:38:39.510Z,96485.34
2023-03-10T04:41:06.563Z,96488.31
2023-03-10T04:43:33.578Z,96481.50
2023-03-10T04:46:00.431Z,96479.22
2023-03-10T04:48:27.572Z,96461.03
2023-03-10T04:51:04.875Z,96447.06
2023-03-10T04:53:32.946Z,96435.38
2023-03-10T04:56:01.197Z,96425.25
2023-03-10T04:58:28.178Z,96434.34
2023-03-10T05:01:03.284Z,96438.47
2023-03-10T05:03:30.503Z,96418.56
2023-03-10T05:05:57.414Z,96402.09
2023-03-10T05:08:24.183Z,96399.41
2023-03-10T05:10:51.071Z,96402.47
2023-03-10T05:13:18.005Z,96403.69
2023-03-10T05:15:44.811Z,96416.22
2023-03-10T05:18:12.646Z,96420.25
2023-03-10T05:20:40.575Z,96408.03
2023-03-10T05:23:07.383Z,96413.63
2023-03-10T05:25:34.277Z,96416.75
2023-03-10T05:28:01.170Z,96409.31
2023-03-10T05:30:28.081Z,96399.78
2023-03-10T05:32:54.974Z,96390.66
2023-03-10T05:35:21.865Z,96386.91
2023-03-10T05:37:48.665Z,96384.75
2023-03-10T05:40:19.839Z,96396.44
2023-03-10T05:42:51.069Z,96403.75
2023-03-10T05:45:18.752Z,96413.69
2023-03-10T05:47:48.908Z,96427.88
2023-03-10T05:50:15.822Z,96412.03
2023-03-10T05:52:44.693Z,96402.00
2023-03-10T05:55:17.316Z,96406.25
2023-03-10T05:57:45.403Z,96390.16
2023-03-10T06:00:14.782Z,96385.25
2023-03-10T06:02:43.334Z,96385.06
2023-03-10T06:05:14.207Z,96374.53
2023-03-10T06:07:42.229Z,96380.22
2023-03-10T06:10:10.559Z,96375.06
2023-03-10T06:12:37.539Z,96364.53
2023-03-10T06:15:05.066Z,96379.44
2023-03-10T06:17:31.901Z,96374.38
2023-03-10T06:19:58.797Z,96377.41
2023-03-10T06:22:25.536Z,96376.09
2023-03-10T06:24:52.290Z,96389.06
2023-03-10T06:27:19.481Z,96385.31
2023-03-10T06:29:49.455Z,96376.50
2023-03-10T06:32:16.563Z,96363.72
2023-03-10T06:34:43.388Z,96356.84
2023-03-10T06:37:10.217Z,96356.13
2023-03-10T06:39:39.926Z,96349.56
2023-03-10T06:42:08.778Z,96337.38
2023-03-10T06:44:36.311Z,96340.19
2023-03-10T06:47:06.697Z,96339.53
2023-03-10T06:49:34.182Z,96333.69
2023-03-10T06:52:01.101Z,96335.97
2023-03-10T06:54:27.887Z,96317.47
2023-03-10T06:56:54.676Z,96326.34
2023-03-10T06:59:21.581Z,96324.44
2023-03-10T07:01:48.426Z,96325.22
2023-03-10T07:04:15.227Z,96319.81
2023-03-10T07:06:42.371Z,96313.63
2023-03-10T07:09:09.177Z,96314.50
2023-03-10T07:11:36.338Z,96320.81
2023-03-10T07:14:03.557Z,96326.75
2023-03-10T07:16:30.402Z,96333.81
2023-03-10T07:18:57.175Z,96339.72
2023-03-10T07:21:24.114Z,96344.59
2023-03-10T07:23:51.283Z,96350.06
2023-03-10T07:26:19.092Z,96363.75
2023-03-10T07:28:47.001Z,96360.78
2023-03-10T07:31:16.677Z,96366.13
2023-03-10T07:33:43.578Z,96367.25
2023-03-10T07:36:14.507Z,96367.25
2023-03-10T07:38:41.565Z,96363.69
2023-03-10T07:41:17.176Z,96367.16
2023-03-10T07:43:44.775Z,96358.63
2023-03-10T07:46:15.090Z,96367.09
2023-03-10T07:48:42.686Z,96370.25
2023-03-10T07:51:12.352Z,96367.09
2023-03-10T07:53:39.297Z,96379.06
2023-03-10T07:56:09.032Z,96394.59
2023-03-10T07:58:36.694Z,96405.78
2023-03-10T08:01:07.052Z,96409.56
2023-03-10T08:03:34.754Z,96415.69
2023-03-10T08:06:02.603Z,96432.78
2023-03-10T08:08:29.909Z,96431.44
2023-03-10T08:11:14.932Z,96450.59
2023-03-10T08:13:42.207Z,96488.22
2023-03-10T08:16:09.332Z,96489.44
2023-03-10T08:18:36.723Z,96476.22
2023-03-10T08:21:06.580Z,96470.03
2023-03-10T08:23:34.553Z,96469.41
2023-03-10T08:26:10.878Z,96434.84
2023-03-10T08:28:38.915Z,96435.44
2023-03-10T08:31:16.196Z,96422.69
2023-03-10T08:33:44.785Z,96424.94
2023-03-10T08:36:16.232Z,96429.53
2023-03-10T08:38:43.983Z,96426.41
2023-03-10T08:41:22.938Z,96417.59
2023-03-10T08:43:51.952Z,96417.78
2023-03-10T08:46:23.159Z,96420.63
2023-03-10T08:48:50.557Z,96430.81
2023-03-10T08:51:19.048Z,96432.88
2023-03-10T08:53:48.453Z,96437.50
2023-03-10T08:56:18.925Z,96463.47
2023-03-10T08:58:46.182Z,96456.34
2023-03-10T09:01:16.499Z,96458.59
2023-03-10T09:03:45.546Z,96445.47
2023-03-10T09:06:13.768Z,96458.63
2023-03-10T09:08:41.405Z,96479.44
2023-03-10T09:11:15.576Z,96469.09
2023-03-10T09:13:42.562Z,96468.78
2023-03-10T09:16:11.334Z,96478.84
2023-03-10T09:18:38.404Z,96481.50
2023-03-10T09:21:05.846Z,96488.59
2023-03-10T09:23:32.783Z,96490.13
2023-03-10T09:26:00.706Z,96483.31
2023-03-10T09:28:27.565Z,96481.47
2023-03-10T09:30:54.956Z,96492.50
2023-03-10T09:33:23.178Z,96474.50
2023-03-10T09:36:05.877Z,96472.31
2023-03-10T09:38:35.318Z,96484.28
2023-03-10T09:41:26.177Z,96478.94
2023-03-10T09:44:23.587Z,96468.91
2023-03-10T09:47:23.517Z,96472.22
2023-03-10T09:50:18.757Z,96481.06
2023-03-10T09:53:10.814Z,96478.91
2023-03-10T09:55:47.835Z,96477.06
2023-03-10T09:58:37.046Z,96480.19
2023-03-10T10:01:06.707Z,96487.13
2023-03-10T10:03:53.182Z,96476.91
2023-03-10T10:06:30.440Z,96481.03
2023-03-10T10:09:22.430Z,96496.41
2023-03-10T10:11:49.258Z,96495.13
2023-03-10T10:14:31.268Z,96494.69
2023-03-10T10:17:47.320Z,96489.09
2023-03-10T10:20:27.114Z,96492.94
2023-03-10T10:22:54.942Z,96499.81
2023-03-10T10:25:26.001Z,96503.59
2023-03-10T10:27:56.019Z,96497.13
2023-03-10T10:30:32.709Z,96492.50
2023-03-10T10:33:12.474Z,96500.78
2023-03-10T10:36:02.519Z,96502.66
2023-03-10T10:38:32.206Z,96502.72
2023-03-10T10:41:03.924Z,96502.84
2023-03-10T10:43:42.015Z,96509.78
2023-03-10T10:46:10.974Z,96506.09
2023-03-10T10:48:48.461Z,96504.25
2023-03-10T10:51:29.295Z,96503.34
2023-03-10T10:54:29.896Z,96502.09
2023-03-10T10:57:00.346Z,96507.66
2023-03-10T10:59:35.880Z,96519.50
2023-03-10T11:02:21.304Z,96500.66
2023-03-10T11:04:48.236Z,96512.53
2023-03-10T11:07:27.227Z,96504.47
2023-03-10T11:09:58.358Z,96513.97
2023-03-10T11:12:44.341Z,96516.78
2023-03-10T11:15:35.916Z,96511.06
2023-03-10T11:18:17.384Z,96517.50
2023-03-10T11:21:14.327Z,96526.22
2023-03-10T11:23:59.793Z,96530.84
2023-03-10T11:26:50.863Z,96530.22
2023-03-10T11:29:51.458Z,96541.91
2023-03-10T11:33:20.854Z,96535.34
2023-03-10T11:36:05.831Z,96530.97
2023-03-10T11:38:51.999Z,96527.78
2023-03-10T11:41:28.042Z,96531.78
2023-03-10T11:44:19.061Z,96518.06
2023-03-10T11:47:11.807Z,96539.19
2023-03-10T11:49:43.522Z,96520.78
2023-03-10T11:52:20.989Z,96516.56
2023-03-10T11:55:03.648Z,96518.50
2023-03-10T11:57:42.687Z,96521.53
2023-03-10T12:00:31.679Z,96506.97
2023-03-10T12:03:24.379Z,96508.38
2023-03-10T12:06:02.969Z,96511.13
2023-03-10T12:08:36.181Z,96498.00
2023-03-10T12:11:11.924Z,96500.84
2023-03-10T12:13:53.031Z,96503.88
2023-03-10T12:16:26.089Z,96489.97
2023-03-10T12:18:53.832Z,96503.66
2023-03-10T12:21:31.787Z,96501.84
2023-03-10T12:24:03.192Z,96499.41
2023-03-10T12:26:39.285Z,96504.97
2023-03-10T12:29:21.476Z,96499.38
2023-03-10T12:31:55.207Z,96508.31
2023-03-10T12:34:27.883Z,96506.88
2023-03-10T12:37:22.475Z,96528.94
2023-03-10T12:39:49.280Z,96521.00
2023-03-10T12:42:28.457Z,96521.41
2023-03-10T12:45:29.223Z,96531.03
2023-03-10T12:48:12.780Z,96524.09
2023-03-10T12:50:55.807Z,96519.41
2023-03-10T12:53:54.816Z,96522.47
2023-03-10T12:56:36.556Z,96510.56
2023-03-10T12:59:33.075Z,96514.66
2023-03-10T13:02:03.153Z,96513.63
2023-03-10T13:04:31.071Z,96516.22
2023-03-10T13:07:03.695Z,96521.38
2023-03-10T13:09:43.728Z,96520.16
2023-03-10T13:12:46.320Z,96521.16
2023-03-10T13:15:27.354Z,96522.19
2023-03-10T13:17:55.280Z,96521.75
2023-03-10T13:20:23.338Z,96522.38
2023-03-10T13:22:57.881Z,96532.06
2023-03-10T13:25:26.309Z,96524.84
2023-03-10T13:27:54.472Z,96526.47
2023-03-10T13:30:26.514Z,96520.09
2023-03-10T13:32:58.239Z,96529.97
2023-03-10T13:35:38.086Z,96517.16
2023-03-10T13:38:24.448Z,96530.50
2023-03-10T13:40:57.418Z,96535.03
2023-03-10T13:43:41.670Z,96555.03
2023-03-10T13:46:32.244Z,96560.53
2023-03-10T13:49:07.280Z,96560.03
2023-03-10T13:51:37.883Z,96586.13
2023-03-10T13:54:30.014Z,96603.31
2023-03-10T13:57:07.679Z,96579.13
2023-03-10T13:59:36.726Z,96584.94
2023-03-10T14:02:12.884Z,96586.00
2023-03-10T14:04:53.847Z,96582.59
2023-03-10T14:07:33.921Z,96578.31
2023-03-10T14:10:03.775Z,96609.75
2023-03-10T14:12:39.258Z,96610.94
2023-03-10T14:15:38.656Z,96636.97
2023-03-10T14:18:14.178Z,96641.63
2023-03-10T14:20:44.573Z,96628.78
2023-03-10T14:23:23.380Z,96636.78
2023-03-10T14:25:53.883Z,96651.44
2023-03-10T14:28:33.817Z,96653.44
2023-03-10T14:31:02.792Z,96665.84
2023-03-10T14:33:30.029Z,96655.75
2023-03-10T14:35:56.996Z,96640.34
2023-03-10T14:38:24.287Z,96646.56
2023-03-10T14:40:54.910Z,96667.41
2023-03-10T14:43:28.094Z,96670.81
2023-03-10T14:46:01.642Z,96688.59
2023-03-10T14:48:35.604Z,96708.06
2023-03-10T14:51:03.273Z,96686.91
2023-03-10T14:53:31.762Z,96697.47
2023-03-10T14:56:01.881Z,96702.66
2023-03-10T14:58:34.582Z,96699.41
2023-03-10T15:01:01.731Z,96690.72
2023-03-10T15:03:31.363Z,96706.25
2023-03-10T15:05:58.150Z,96710.50
2023-03-10T15:08:25.376Z,96735.34
2023-03-10T15:10:52.978Z,96734.69
2023-03-10T15:13:24.151Z,96755.59
2023-03-10T15:15:51.846Z,96771.25
2023-03-10T15:18:22.774Z,96765.81
2023-03-10T15:20:50.449Z,96778.75
2023-03-10T15:23:22.781Z,96765.50
2023-03-10T15:25:49.728Z,96788.47
2023-03-10T15:28:17.005Z,96773.50
2023-03-10T15:30:44.888Z,96772.56
2023-03-10T15:33:12.094Z,96802.69
2023-03-10T15:35:40.479Z,96777.13
2023-03-10T15:38:07.721Z,96779.59
2023-03-10T15:40:35.933Z,96783.19
2023-03-10T15:43:02.847Z,96796.44
2023-03-10T15:45:31.716Z,96798.44
2023-03-10T15:47:59.162Z,96825.06
2023-03-10T15:50:26.696Z,96852.53
2023-03-10T15:52:58.334Z,96855.28
2023-03-10T15:55:27.526Z,96875.59
2023-03-10T15:57:56.038Z,96856.88
2023-03-10T16:00:25.604Z,96834.00
2023-03-10T16:02:52.436Z,96812.41
2023-03-10T16:05:20.314Z,96804.88
2023-03-10T16:07:47.350Z,96806.59
2023-03-10T16:10:18.366Z,96800.81
2023-03-10T16:12:45.647Z,96782.75
2023-03-10T16:15:15.798Z,96807.44
2023-03-10T16:17:44.126Z,96798.31
2023-03-10T16:20:16.853Z,96809.56
2023-03-10T16:22:43.706Z,96795.91
2023-03-10T16:25:21.158Z,96800.28
2023-03-10T16:27:48.719Z,96796.00
2023-03-10T16:30:17.809Z,96832.66
2023-03-10T16:32:49.692Z,96821.84
2023-03-10T16:35:17.844Z,96838.03
2023-03-10T16:37:44.806Z,96855.81
2023-03-10T16:40:12.947Z,96906.72
2023-03-10T16:42:43.162Z,96886.72
2023-03-10T16:45:10.645Z,96859.75
2023-03-10T16:47:37.627Z,96861.19
2023-03-10T16:50:04.947Z,96850.72
2023-03-10T16:52:31.770Z,96840.28
2023-03-10T16:55:00.707Z,96817.22
2023-03-10T16:57:27.676Z,96811.91
2023-03-10T16:59:54.520Z,96813.81
2023-03-10T17:02:21.363Z,96833.81
2023-03-10T17:04:48.417Z,96815.72
2023-03-10T17:07:15.290Z,96813.97
2023-03-10T17:09:42.339Z,96817.44
2023-03-10T17:12:09.295Z,96833.31
2023-03-10T17:14:36.190Z,96825.53
2023-03-10T17:17:03.228Z,96823.28
2023-03-10T17:19:30.942Z,96852.75
2023-03-10T17:21:59.101Z,96845.47
2023-03-10T17:24:27.332Z,96844.34
2023-03-10T17:26:54.188Z,96830.69
2023-03-10T17:29:21.209Z,96824.94
2023-03-10T17:31:50.415Z,96837.50
2023-03-10T17:34:19.564Z,96845.59
2023-03-10T17:36:49.951Z,96885.94
2023-03-10T17:39:21.448Z,96934.72
2023-03-10T17:41:48.825Z,96921.84
2023-03-10T17:44:16.876Z,96927.31
2023-03-10T17:46:43.873Z,96930.00
2023-03-10T17:49:13.603Z,96929.88
2023-03-10T17:51:44.772Z,96932.88
2023-03-10T17:54:19.984Z,96957.41
2023-03-10T17:56:49.663Z,96969.47
2023-03-10T17:59:17.566Z,96974.34
2023-03-10T18:01:46.398Z,96975.47
2023-03-10T18:04:13.519Z,96975.63
2023-03-10T18:06:41.813Z,96980.09
2023-03-10T18:09:14.316Z,96968.66
2023-03-10T18:11:41.549Z,96995.44
2023-03-10T18:14:08.337Z,96990.38
2023-03-10T18:16:39.281Z,96981.50
2023-03-10T18:19:10.480Z,96995.91
2023-03-10T18:21:37.919Z,96969.78
2023-03-10T18:24:05.094Z,96956.16
2023-03-10T18:26:32.001Z,96966.75
2023-03-10T18:29:00.118Z,96982.91
2023-03-10T18:31:31.807Z,96990.34
2023-03-10T18:33:59.869Z,97002.38
2023-03-10T18:36:28.012Z,96987.03
2023-03-10T18:38:55.217Z,97010.47
2023-03-10T18:41:29.407Z,97016.16
2023-03-10T18:43:57.308Z,97009.53
2023-03-10T18:46:24.346Z,97005.72
2023-03-10T18:48:55.879Z,97023.94
2023-03-10T18:51:28.514Z,97003.66
2023-03-10T18:53:55.696Z,97016.34
2023-03-10T18:56:25.576Z,97023.13
2023-03-10T18:58:52.435Z,97005.56
2023-03-10T19:01:19.448Z,97013.63
2023-03-10T19:03:46.348Z,97028.84
2023-03-10T19:06:14.287Z,97053.22
2023-03-10T19:08:41.675Z,97048.34
2023-03-10T19:11:09.002Z,97046.34
2023-03-10T19:13:40.339Z,97019.84
2023-03-10T19:16:09.754Z,97036.88
2023-03-10T19:18:38.546Z,97042.69
2023-03-10T19:21:06.601Z,97056.44
2023-03-10T19:23:34.877Z,97037.69
2023-03-10T19:26:03.461Z,97060.38
2023-03-10T19:28:31.229Z,97043.03
2023-03-10T19:30:58.331Z,97049.50
2023-03-10T19:33:25.313Z,97065.94
2023-03-10T19:36:05.519Z,97050.59
2023-03-10T19:38:36.123Z,97065.94
2023-03-10T19:41:05.205Z,97110.13
2023-03-10T19:43:32.919Z,97102.53
2023-03-10T19:46:06.454Z,97108.22
2023-03-10T19:48:33.456Z,97108.53
2023-03-10T19:51:00.810Z,97133.84
2023-03-10T19:53:29.565Z,97130.97
2023-03-10T19:56:03.519Z,97162.47
2023-03-10T19:58:32.658Z,97176.63
2023-03-10T20:01:00.376Z,97195.88
2023-03-10T20:03:30.173Z,97222.59
2023-03-10T20:05:57.359Z,97196.91
2023-03-10T20:08:24.847Z,97209.25
2023-03-10T20:10:52.153Z,97222.78
2023-03-10T20:13:18.964Z,97237.66
2023-03-10T20:15:45.780Z,97235.25
2023-03-10T20:18:13.189Z,97239.94
2023-03-10T20:20:41.198Z,97279.34
2023-03-10T20:23:08.558Z,97267.91
2023-03-10T20:25:35.423Z,97263.44
2023-03-10T20:28:02.143Z,97296.59
2023-03-10T20:30:30.999Z,97314.78
2023-03-10T20:33:00.493Z,97318.00
2023-03-10T20:35:31.313Z,97330.16
2023-03-10T20:37:58.870Z,97342.97
2023-03-10T20:40:27.676Z,97344.56
2023-03-10T20:42:59.401Z,97362.59
2023-03-10T20:45:27.193Z,97372.53
2023-03-10T20:47:58.424Z,97394.84
2023-03-10T20:50:25.489Z,97425.84
2023-03-10T20:52:52.881Z,97438.09
2023-03-10T20:55:27.392Z,97452.44
2023-03-10T20:57:57.509Z,97460.59
2023-03-10T21:00:27.293Z,97472.59
2023-03-10T21:02:57.137Z,97479.00
2023-03-10T21:05:26.643Z,97494.91
2023-03-10T21:07:54.040Z,97512.22
2023-03-10T21:10:31.629Z,97516.00
2023-03-10T21:12:58.556Z,97531.03
2023-03-10T21:15:25.736Z,97533.13
2023-03-10T21:17:52.505Z,97542.28
2023-03-10T21:20:22.690Z,97559.41
2023-03-10T21:22:50.714Z,97541.34
2023-03-10T21:25:24.541Z,97556.03
2023-03-10T21:27:58.590Z,97555.22
2023-03-10T21:30:28.740Z,97544.47
2023-03-10T21:32:59.181Z,97558.34
2023-03-10T21:35:30.363Z,97569.91
2023-03-10T21:37:59.282Z,97571.06
2023-03-10T21:40:28.893Z,97560.09
2023-03-10T21:42:55.912Z,97555.38
2023-03-10T21:45:26.332Z,97556.97
2023-03-10T21:47:53.198Z,97564.75
2023-03-10T21:50:20.655Z,97572.22
2023-03-10T21:52:48.049Z,97583.84
2023-03-10T21:55:24.649Z,97566.63
2023-03-10T21:57:52.286Z,97563.81
2023-03-10T22:00:26.565Z,97569.22
2023-03-10T22:02:53.827Z,97565.25
2023-03-10T22:05:21.736Z,97569.19
2023-03-10T22:07:48.621Z,97554.38
2023-03-10T22:10:17.732Z,97560.16
2023-03-10T22:12:45.103Z,97564.81
2023-03-10T22:15:19.709Z,97562.41
2023-03-10T22:17:47.515Z,97570.97
2023-03-10T22:20:20.473Z,97558.88
2023-03-10T22:22:48.780Z,97568.19
2023-03-10T22:25:17.129Z,97568.78
2023-03-10T22:27:47.757Z,97561.31
2023-03-10T22:30:14.698Z,97568.09
2023-03-10T22:32:42.573Z,97586.19
2023-03-10T22:35:10.132Z,97603.81
2023-03-10T22:37:38.712Z,97602.16
2023-03-10T22:40:10.143Z,97610.22
2023-03-10T22:42:39.280Z,97617.25
2023-03-10T22:45:16.153Z,97625.25
2023-03-10T22:47:43.264Z,97631.13
2023-03-10T22:50:17.070Z,97648.00
2023-03-10T22:52:44.510Z,97640.72
2023-03-10T22:55:19.032Z,97646.09
2023-03-10T22:57:46.097Z,97635.97
2023-03-10T23:00:19.626Z,97642.66
2023-03-10T23:02:50.482Z,97652.16
2023-03-10T23:05:17.711Z,97643.34
2023-03-10T23:07:44.918Z,97644.16
2023-03-10T23:10:25.754Z,97660.00
2023-03-10T23:12:54.221Z,97666.00
2023-03-10T23:15:33.423Z,97672.75
2023-03-10T23:18:01.090Z,97687.25
2023-03-10T23:20:37.015Z,97688.56
2023-03-10T23:23:06.401Z,97684.00
2023-03-10T23:25:40.705Z,97682.50
2023-03-10T23:28:10.516Z,97680.88
2023-03-10T23:30:40.210Z,97692.69
2023-03-10T23:33:07.633Z,97678.28
2023-03-10T23:35:36.133Z,97671.06
2023-03-10T23:38:06.053Z,97684.19
2023-03-10T23:40:34.792Z,97693.59
2023-03-10T23:43:05.392Z,97698.50
2023-03-10T23:45:36.292Z,97705.72
2023-03-10T23:48:09.361Z,97722.84
2023-03-10T23:50:42.677Z,97718.06
2023-03-10T23:53:12.668Z,97715.91
2023-03-10T23:55:44.059Z,97717.28
2023-03-10T23:58:13.334Z,97729.69
